sensor_id;sensor_type;location;lat;lon;timestamp;temperature;humidity
72206;DHT22;60111;48.286;7.812;2023-07-02T00:01:29;18.20;83.50
72206;DHT22;60111;48.286;7.812;2023-07-02T00:04:02;18.40;82.90
72206;DHT22;60111;48.286;7.812;2023-07-02T00:06:34;18.30;82.90
72206;DHT22;60111;48.286;7.812;2023-07-02T00:09:10;18.20;83.10
72206;DHT22;60111;48.286;7.812;2023-07-02T00:11:43;18.20;83.40
72206;DHT22;60111;48.286;7.812;2023-07-02T00:14:15;18.10;83.60
72206;DHT22;60111;48.286;7.812;2023-07-02T00:16:48;18.10;83.90
72206;DHT22;60111;48.286;7.812;2023-07-02T00:19:20;18.10;83.50
72206;DHT22;60111;48.286;7.812;2023-07-02T00:21:53;18.00;83.90
72206;DHT22;60111;48.286;7.812;2023-07-02T00:24:27;18.00;84.20
72206;DHT22;60111;48.286;7.812;2023-07-02T00:27:01;18.00;84.20
72206;DHT22;60111;48.286;7.812;2023-07-02T00:29:33;17.90;84.10
72206;DHT22;60111;48.286;7.812;2023-07-02T00:32:06;18.00;84.20
72206;DHT22;60111;48.286;7.812;2023-07-02T00:34:38;17.90;84.30
72206;DHT22;60111;48.286;7.812;2023-07-02T00:37:11;17.90;84.40
72206;DHT22;60111;48.286;7.812;2023-07-02T00:39:44;18.00;84.20
72206;DHT22;60111;48.286;7.812;2023-07-02T00:42:16;17.90;84.40
72206;DHT22;60111;48.286;7.812;2023-07-02T00:44:49;17.90;84.30
72206;DHT22;60111;48.286;7.812;2023-07-02T00:47:24;18.00;83.90
72206;DHT22;60111;48.286;7.812;2023-07-02T00:49:56;18.00;84.20
72206;DHT22;60111;48.286;7.812;2023-07-02T00:52:29;18.00;84.30
72206;DHT22;60111;48.286;7.812;2023-07-02T00:55:02;18.00;84.40
72206;DHT22;60111;48.286;7.812;2023-07-02T00:57:35;18.00;84.60
72206;DHT22;60111;48.286;7.812;2023-07-02T01:00:08;18.00;84.70
72206;DHT22;60111;48.286;7.812;2023-07-02T01:02:41;18.10;84.70
72206;DHT22;60111;48.286;7.812;2023-07-02T01:05:17;18.20;84.00
72206;DHT22;60111;48.286;7.812;2023-07-02T01:07:52;18.20;84.30
72206;DHT22;60111;48.286;7.812;2023-07-02T01:10:25;18.30;84.00
72206;DHT22;60111;48.286;7.812;2023-07-02T01:13:00;18.30;84.10
72206;DHT22;60111;48.286;7.812;2023-07-02T01:15:34;18.30;84.20
72206;DHT22;60111;48.286;7.812;2023-07-02T01:18:07;18.30;84.70
72206;DHT22;60111;48.286;7.812;2023-07-02T01:20:41;18.30;84.60
72206;DHT22;60111;48.286;7.812;2023-07-02T01:23:14;18.30;84.70
72206;DHT22;60111;48.286;7.812;2023-07-02T01:25:47;18.30;85.00
72206;DHT22;60111;48.286;7.812;2023-07-02T01:28:19;18.30;85.10
72206;DHT22;60111;48.286;7.812;2023-07-02T01:30:52;18.20;85.60
72206;DHT22;60111;48.286;7.812;2023-07-02T01:33:24;18.20;85.60
72206;DHT22;60111;48.286;7.812;2023-07-02T01:35:57;18.20;85.60
72206;DHT22;60111;48.286;7.812;2023-07-02T01:38:30;18.20;85.70
72206;DHT22;60111;48.286;7.812;2023-07-02T01:41:03;18.20;85.80
72206;DHT22;60111;48.286;7.812;2023-07-02T01:43:36;18.20;85.60
72206;DHT22;60111;48.286;7.812;2023-07-02T01:46:08;18.30;84.90
72206;DHT22;60111;48.286;7.812;2023-07-02T01:48:41;18.30;84.70
72206;DHT22;60111;48.286;7.812;2023-07-02T01:51:13;18.40;84.20
72206;DHT22;60111;48.286;7.812;2023-07-02T01:53:46;18.30;84.00
72206;DHT22;60111;48.286;7.812;2023-07-02T01:56:18;18.20;84.20
72206;DHT22;60111;48.286;7.812;2023-07-02T01:58:51;18.20;84.30
72206;DHT22;60111;48.286;7.812;2023-07-02T02:01:23;18.30;84.20
72206;DHT22;60111;48.286;7.812;2023-07-02T02:03:56;18.30;84.10
72206;DHT22;60111;48.286;7.812;2023-07-02T02:06:28;18.30;83.00
72206;DHT22;60111;48.286;7.812;2023-07-02T02:09:01;18.30;82.80
72206;DHT22;60111;48.286;7.812;2023-07-02T02:11:39;18.20;83.00
72206;DHT22;60111;48.286;7.812;2023-07-02T02:14:09;18.20;82.70
72206;DHT22;60111;48.286;7.812;2023-07-02T02:16:42;18.30;80.40
72206;DHT22;60111;48.286;7.812;2023-07-02T02:19:17;18.30;79.30
72206;DHT22;60111;48.286;7.812;2023-07-02T02:21:49;18.30;78.60
72206;DHT22;60111;48.286;7.812;2023-07-02T02:24:22;18.30;77.70
72206;DHT22;60111;48.286;7.812;2023-07-02T02:26:54;18.40;74.90
72206;DHT22;60111;48.286;7.812;2023-07-02T02:29:27;18.50;74.20
72206;DHT22;60111;48.286;7.812;2023-07-02T02:31:59;18.60;73.20
72206;DHT22;60111;48.286;7.812;2023-07-02T02:34:32;18.60;73.20
72206;DHT22;60111;48.286;7.812;2023-07-02T02:37:04;18.60;73.20
72206;DHT22;60111;48.286;7.812;2023-07-02T02:39:37;18.50;73.70
72206;DHT22;60111;48.286;7.812;2023-07-02T02:42:10;18.50;73.60
72206;DHT22;60111;48.286;7.812;2023-07-02T02:44:42;18.50;74.00
72206;DHT22;60111;48.286;7.812;2023-07-02T02:47:15;18.40;73.70
72206;DHT22;60111;48.286;7.812;2023-07-02T02:49:48;18.40;73.30
72206;DHT22;60111;48.286;7.812;2023-07-02T02:52:20;18.40;72.30
72206;DHT22;60111;48.286;7.812;2023-07-02T02:54:53;18.40;72.40
72206;DHT22;60111;48.286;7.812;2023-07-02T02:57:25;18.40;71.90
72206;DHT22;60111;48.286;7.812;2023-07-02T02:59:58;18.30;71.80
72206;DHT22;60111;48.286;7.812;2023-07-02T03:02:31;18.30;71.50
72206;DHT22;60111;48.286;7.812;2023-07-02T03:05:04;18.30;71.40
72206;DHT22;60111;48.286;7.812;2023-07-02T03:07:38;18.20;71.60
72206;DHT22;60111;48.286;7.812;2023-07-02T03:10:10;18.20;71.60
72206;DHT22;60111;48.286;7.812;2023-07-02T03:12:43;18.10;72.00
72206;DHT22;60111;48.286;7.812;2023-07-02T03:15:15;18.20;71.20
72206;DHT22;60111;48.286;7.812;2023-07-02T03:17:49;18.20;71.10
72206;DHT22;60111;48.286;7.812;2023-07-02T03:20:21;18.20;71.60
72206;DHT22;60111;48.286;7.812;2023-07-02T03:22:54;18.10;71.40
72206;DHT22;60111;48.286;7.812;2023-07-02T03:25:26;18.20;71.70
72206;DHT22;60111;48.286;7.812;2023-07-02T03:27:59;18.10;72.30
72206;DHT22;60111;48.286;7.812;2023-07-02T03:30:32;18.10;72.60
72206;DHT22;60111;48.286;7.812;2023-07-02T03:33:04;18.10;73.10
72206;DHT22;60111;48.286;7.812;2023-07-02T03:35:37;18.10;72.70
72206;DHT22;60111;48.286;7.812;2023-07-02T03:38:09;18.00;73.20
72206;DHT22;60111;48.286;7.812;2023-07-02T03:40:42;18.00;72.90
72206;DHT22;60111;48.286;7.812;2023-07-02T03:43:14;18.00;73.10
72206;DHT22;60111;48.286;7.812;2023-07-02T03:45:47;17.90;73.50
72206;DHT22;60111;48.286;7.812;2023-07-02T03:48:19;17.90;73.70
72206;DHT22;60111;48.286;7.812;2023-07-02T03:50:52;17.90;73.70
72206;DHT22;60111;48.286;7.812;2023-07-02T03:53:25;17.90;74.60
72206;DHT22;60111;48.286;7.812;2023-07-02T03:55:57;17.90;74.30
72206;DHT22;60111;48.286;7.812;2023-07-02T03:58:30;17.90;74.80
72206;DHT22;60111;48.286;7.812;2023-07-02T04:01:02;17.90;75.80
72206;DHT22;60111;48.286;7.812;2023-07-02T04:03:35;17.90;74.60
72206;DHT22;60111;48.286;7.812;2023-07-02T04:06:07;17.90;74.30
72206;DHT22;60111;48.286;7.812;2023-07-02T04:08:40;17.90;74.50
72206;DHT22;60111;48.286;7.812;2023-07-02T04:11:12;17.90;75.50
72206;DHT22;60111;48.286;7.812;2023-07-02T04:13:45;18.00;75.30
72206;DHT22;60111;48.286;7.812;2023-07-02T04:16:17;17.90;76.20
72206;DHT22;60111;48.286;7.812;2023-07-02T04:18:50;17.90;76.60
72206;DHT22;60111;48.286;7.812;2023-07-02T04:21:23;17.90;77.30
72206;DHT22;60111;48.286;7.812;2023-07-02T04:23:55;17.90;78.00
72206;DHT22;60111;48.286;7.812;2023-07-02T04:26:28;17.90;79.00
72206;DHT22;60111;48.286;7.812;2023-07-02T04:29:03;17.90;79.00
72206;DHT22;60111;48.286;7.812;2023-07-02T04:31:35;17.90;78.90
72206;DHT22;60111;48.286;7.812;2023-07-02T04:34:08;17.90;79.00
72206;DHT22;60111;48.286;7.812;2023-07-02T04:36:40;17.90;79.30
72206;DHT22;60111;48.286;7.812;2023-07-02T04:39:13;17.90;76.90
72206;DHT22;60111;48.286;7.812;2023-07-02T04:41:45;17.90;76.40
72206;DHT22;60111;48.286;7.812;2023-07-02T04:44:19;18.00;76.50
72206;DHT22;60111;48.286;7.812;2023-07-02T04:46:58;18.10;76.70
72206;DHT22;60111;48.286;7.812;2023-07-02T04:49:31;18.10;76.50
72206;DHT22;60111;48.286;7.812;2023-07-02T04:52:04;18.10;77.00
72206;DHT22;60111;48.286;7.812;2023-07-02T04:54:37;18.00;77.40
72206;DHT22;60111;48.286;7.812;2023-07-02T04:57:09;18.00;77.70
72206;DHT22;60111;48.286;7.812;2023-07-02T04:59:42;18.10;78.40
72206;DHT22;60111;48.286;7.812;2023-07-02T05:02:15;18.10;78.30
72206;DHT22;60111;48.286;7.812;2023-07-02T05:04:47;18.10;77.90
72206;DHT22;60111;48.286;7.812;2023-07-02T05:07:20;18.10;77.80
72206;DHT22;60111;48.286;7.812;2023-07-02T05:09:53;18.10;77.50
72206;DHT22;60111;48.286;7.812;2023-07-02T05:12:25;18.10;75.80
72206;DHT22;60111;48.286;7.812;2023-07-02T05:14:58;18.20;75.30
72206;DHT22;60111;48.286;7.812;2023-07-02T05:17:31;18.20;74.00
72206;DHT22;60111;48.286;7.812;2023-07-02T05:20:07;18.20;74.60
72206;DHT22;60111;48.286;7.812;2023-07-02T05:22:39;18.20;73.20
72206;DHT22;60111;48.286;7.812;2023-07-02T05:25:12;18.30;73.30
72206;DHT22;60111;48.286;7.812;2023-07-02T05:27:44;18.30;74.00
72206;DHT22;60111;48.286;7.812;2023-07-02T05:30:17;18.30;75.50
72206;DHT22;60111;48.286;7.812;2023-07-02T05:32:50;18.30;75.70
72206;DHT22;60111;48.286;7.812;2023-07-02T05:35:22;18.30;76.10
72206;DHT22;60111;48.286;7.812;2023-07-02T05:37:55;18.30;75.90
72206;DHT22;60111;48.286;7.812;2023-07-02T05:40:27;18.40;74.80
72206;DHT22;60111;48.286;7.812;2023-07-02T05:43:00;18.50;74.10
72206;DHT22;60111;48.286;7.812;2023-07-02T05:45:32;18.50;72.10
72206;DHT22;60111;48.286;7.812;2023-07-02T05:48:05;18.60;71.20
72206;DHT22;60111;48.286;7.812;2023-07-02T05:50:38;18.60;70.90
72206;DHT22;60111;48.286;7.812;2023-07-02T05:53:10;18.60;71.30
72206;DHT22;60111;48.286;7.812;2023-07-02T05:55:43;18.70;71.40
72206;DHT22;60111;48.286;7.812;2023-07-02T05:58:16;18.70;71.00
72206;DHT22;60111;48.286;7.812;2023-07-02T06:00:48;18.70;70.10
72206;DHT22;60111;48.286;7.812;2023-07-02T06:03:21;18.80;70.10
72206;DHT22;60111;48.286;7.812;2023-07-02T06:05:53;18.80;70.00
72206;DHT22;60111;48.286;7.812;2023-07-02T06:08:45;18.90;69.30
72206;DHT22;60111;48.286;7.812;2023-07-02T06:11:18;19.00;68.60
72206;DHT22;60111;48.286;7.812;2023-07-02T06:13:50;19.10;68.40
72206;DHT22;60111;48.286;7.812;2023-07-02T06:16:23;19.20;67.40
72206;DHT22;60111;48.286;7.812;2023-07-02T06:18:56;19.30;66.10
72206;DHT22;60111;48.286;7.812;2023-07-02T06:21:29;19.40;66.70
72206;DHT22;60111;48.286;7.812;2023-07-02T06:24:02;19.50;65.90
72206;DHT22;60111;48.286;7.812;2023-07-02T06:26:35;19.50;65.40
72206;DHT22;60111;48.286;7.812;2023-07-02T06:29:07;19.60;64.10
72206;DHT22;60111;48.286;7.812;2023-07-02T06:31:40;19.60;64.40
72206;DHT22;60111;48.286;7.812;2023-07-02T06:34:12;19.70;61.40
72206;DHT22;60111;48.286;7.812;2023-07-02T06:36:45;19.50;61.50
72206;DHT22;60111;48.286;7.812;2023-07-02T06:39:18;19.60;62.30
72206;DHT22;60111;48.286;7.812;2023-07-02T06:41:51;19.60;61.30
72206;DHT22;60111;48.286;7.812;2023-07-02T06:44:23;19.60;62.20
72206;DHT22;60111;48.286;7.812;2023-07-02T06:46:56;19.70;62.20
72206;DHT22;60111;48.286;7.812;2023-07-02T06:49:29;19.70;59.90
72206;DHT22;60111;48.286;7.812;2023-07-02T06:52:02;19.70;60.80
72206;DHT22;60111;48.286;7.812;2023-07-02T06:54:35;19.80;61.10
72206;DHT22;60111;48.286;7.812;2023-07-02T06:57:08;20.00;60.10
72206;DHT22;60111;48.286;7.812;2023-07-02T06:59:40;20.00;59.40
72206;DHT22;60111;48.286;7.812;2023-07-02T07:02:13;19.90;59.60
72206;DHT22;60111;48.286;7.812;2023-07-02T07:04:45;19.90;59.80
72206;DHT22;60111;48.286;7.812;2023-07-02T07:07:18;19.80;59.80
72206;DHT22;60111;48.286;7.812;2023-07-02T07:09:51;19.80;59.90
72206;DHT22;60111;48.286;7.812;2023-07-02T07:12:23;19.90;60.90
72206;DHT22;60111;48.286;7.812;2023-07-02T07:14:56;20.10;59.20
72206;DHT22;60111;48.286;7.812;2023-07-02T07:17:28;20.20;58.50
72206;DHT22;60111;48.286;7.812;2023-07-02T07:20:02;20.30;57.20
72206;DHT22;60111;48.286;7.812;2023-07-02T07:22:36;20.30;58.00
72206;DHT22;60111;48.286;7.812;2023-07-02T07:25:09;20.20;56.70
72206;DHT22;60111;48.286;7.812;2023-07-02T07:27:41;20.10;55.10
72206;DHT22;60111;48.286;7.812;2023-07-02T07:30:14;20.10;54.50
72206;DHT22;60111;48.286;7.812;2023-07-02T07:32:47;20.20;55.50
72206;DHT22;60111;48.286;7.812;2023-07-02T07:35:20;20.10;55.80
72206;DHT22;60111;48.286;7.812;2023-07-02T07:37:53;20.10;56.10
72206;DHT22;60111;48.286;7.812;2023-07-02T07:40:26;20.10;53.10
72206;DHT22;60111;48.286;7.812;2023-07-02T07:42:59;20.00;54.40
72206;DHT22;60111;48.286;7.812;2023-07-02T07:45:33;20.00;53.80
72206;DHT22;60111;48.286;7.812;2023-07-02T07:48:06;20.10;54.90
72206;DHT22;60111;48.286;7.812;2023-07-02T07:50:39;20.40;53.60
72206;DHT22;60111;48.286;7.812;2023-07-02T07:53:11;20.70;53.70
72206;DHT22;60111;48.286;7.812;2023-07-02T07:55:44;20.90;52.80
72206;DHT22;60111;48.286;7.812;2023-07-02T07:58:16;20.80;52.90
72206;DHT22;60111;48.286;7.812;2023-07-02T08:00:49;20.80;53.50
72206;DHT22;60111;48.286;7.812;2023-07-02T08:03:21;20.80;56.20
72206;DHT22;60111;48.286;7.812;2023-07-02T08:05:54;21.00;53.70
72206;DHT22;60111;48.286;7.812;2023-07-02T08:08:27;21.20;52.60
72206;DHT22;60111;48.286;7.812;2023-07-02T08:10:59;21.40;52.50
72206;DHT22;60111;48.286;7.812;2023-07-02T08:13:32;21.30;51.80
72206;DHT22;60111;48.286;7.812;2023-07-02T08:16:05;21.40;52.10
72206;DHT22;60111;48.286;7.812;2023-07-02T08:18:38;21.50;51.60
72206;DHT22;60111;48.286;7.812;2023-07-02T08:21:11;21.60;51.10
72206;DHT22;60111;48.286;7.812;2023-07-02T08:23:43;21.60;52.40
72206;DHT22;60111;48.286;7.812;2023-07-02T08:26:16;21.70;51.50
72206;DHT22;60111;48.286;7.812;2023-07-02T08:28:48;21.60;52.10
72206;DHT22;60111;48.286;7.812;2023-07-02T08:31:21;21.40;52.20
72206;DHT22;60111;48.286;7.812;2023-07-02T08:33:54;21.50;52.40
72206;DHT22;60111;48.286;7.812;2023-07-02T08:36:26;21.60;52.80
72206;DHT22;60111;48.286;7.812;2023-07-02T08:38:59;21.60;51.80
72206;DHT22;60111;48.286;7.812;2023-07-02T08:41:43;21.50;52.60
72206;DHT22;60111;48.286;7.812;2023-07-02T08:44:20;21.60;53.00
72206;DHT22;60111;48.286;7.812;2023-07-02T08:46:50;21.70;51.60
72206;DHT22;60111;48.286;7.812;2023-07-02T08:49:25;21.90;52.10
72206;DHT22;60111;48.286;7.812;2023-07-02T08:51:58;21.90;51.80
72206;DHT22;60111;48.286;7.812;2023-07-02T08:54:31;21.90;51.90
72206;DHT22;60111;48.286;7.812;2023-07-02T08:57:04;22.00;52.90
72206;DHT22;60111;48.286;7.812;2023-07-02T08:59:37;22.00;51.10
72206;DHT22;60111;48.286;7.812;2023-07-02T09:02:09;21.90;51.90
72206;DHT22;60111;48.286;7.812;2023-07-02T09:05:02;22.10;51.40
72206;DHT22;60111;48.286;7.812;2023-07-02T09:07:46;22.10;51.00
72206;DHT22;60111;48.286;7.812;2023-07-02T09:10:29;21.80;50.70
72206;DHT22;60111;48.286;7.812;2023-07-02T09:13:07;21.90;52.00
72206;DHT22;60111;48.286;7.812;2023-07-02T09:15:41;22.00;50.30
72206;DHT22;60111;48.286;7.812;2023-07-02T09:18:18;22.10;49.00
72206;DHT22;60111;48.286;7.812;2023-07-02T09:20:54;21.90;50.50
72206;DHT22;60111;48.286;7.812;2023-07-02T09:23:35;21.80;48.00
72206;DHT22;60111;48.286;7.812;2023-07-02T09:26:08;22.00;50.00
72206;DHT22;60111;48.286;7.812;2023-07-02T09:28:42;22.20;49.10
72206;DHT22;60111;48.286;7.812;2023-07-02T09:31:15;22.20;50.20
72206;DHT22;60111;48.286;7.812;2023-07-02T09:33:49;22.00;47.80
72206;DHT22;60111;48.286;7.812;2023-07-02T09:36:21;21.90;48.30
72206;DHT22;60111;48.286;7.812;2023-07-02T09:38:54;22.00;47.90
72206;DHT22;60111;48.286;7.812;2023-07-02T09:41:27;22.30;48.10
72206;DHT22;60111;48.286;7.812;2023-07-02T09:44:01;22.40;47.20
72206;DHT22;60111;48.286;7.812;2023-07-02T09:46:34;22.30;48.50
72206;DHT22;60111;48.286;7.812;2023-07-02T09:49:11;22.20;47.90
72206;DHT22;60111;48.286;7.812;2023-07-02T09:51:44;22.10;45.00
72206;DHT22;60111;48.286;7.812;2023-07-02T09:54:18;22.30;43.80
72206;DHT22;60111;48.286;7.812;2023-07-02T09:56:52;22.60;43.70
72206;DHT22;60111;48.286;7.812;2023-07-02T09:59:25;22.80;44.40
72206;DHT22;60111;48.286;7.812;2023-07-02T10:01:58;22.90;45.20
72206;DHT22;60111;48.286;7.812;2023-07-02T10:04:41;23.10;43.70
72206;DHT22;60111;48.286;7.812;2023-07-02T10:07:26;23.10;43.80
72206;DHT22;60111;48.286;7.812;2023-07-02T10:09:48;23.30;44.70
72206;DHT22;60111;48.286;7.812;2023-07-02T10:12:30;23.50;43.30
72206;DHT22;60111;48.286;7.812;2023-07-02T10:15:04;23.40;42.30
72206;DHT22;60111;48.286;7.812;2023-07-02T10:17:37;23.40;42.10
72206;DHT22;60111;48.286;7.812;2023-07-02T10:20:10;23.20;40.50
72206;DHT22;60111;48.286;7.812;2023-07-02T10:22:44;23.10;40.50
72206;DHT22;60111;48.286;7.812;2023-07-02T10:25:27;23.00;41.70
72206;DHT22;60111;48.286;7.812;2023-07-02T10:28:01;23.00;42.20
72206;DHT22;60111;48.286;7.812;2023-07-02T10:30:36;23.20;42.30
72206;DHT22;60111;48.286;7.812;2023-07-02T10:33:16;23.30;42.10
72206;DHT22;60111;48.286;7.812;2023-07-02T10:35:50;23.40;42.20
72206;DHT22;60111;48.286;7.812;2023-07-02T10:38:25;23.40;41.90
72206;DHT22;60111;48.286;7.812;2023-07-02T10:40:59;23.50;41.70
72206;DHT22;60111;48.286;7.812;2023-07-02T10:43:33;23.60;43.90
72206;DHT22;60111;48.286;7.812;2023-07-02T10:46:05;23.70;41.70
72206;DHT22;60111;48.286;7.812;2023-07-02T10:48:38;23.80;42.80
72206;DHT22;60111;48.286;7.812;2023-07-02T10:51:13;24.00;43.30
72206;DHT22;60111;48.286;7.812;2023-07-02T10:53:46;24.10;42.20
72206;DHT22;60111;48.286;7.812;2023-07-02T10:56:19;24.10;41.10
72206;DHT22;60111;48.286;7.812;2023-07-02T10:58:51;24.00;42.20
72206;DHT22;60111;48.286;7.812;2023-07-02T11:01:31;24.00;42.70
72206;DHT22;60111;48.286;7.812;2023-07-02T11:04:04;24.10;41.30
72206;DHT22;60111;48.286;7.812;2023-07-02T11:06:37;24.30;41.90
72206;DHT22;60111;48.286;7.812;2023-07-02T11:09:16;24.40;42.90
72206;DHT22;60111;48.286;7.812;2023-07-02T11:11:52;24.50;41.40
72206;DHT22;60111;48.286;7.812;2023-07-02T11:14:36;24.20;42.60
72206;DHT22;60111;48.286;7.812;2023-07-02T11:17:08;24.00;42.60
72206;DHT22;60111;48.286;7.812;2023-07-02T11:19:41;24.00;43.50
72206;DHT22;60111;48.286;7.812;2023-07-02T11:22:13;23.80;43.80
72206;DHT22;60111;48.286;7.812;2023-07-02T11:24:46;23.60;45.40
72206;DHT22;60111;48.286;7.812;2023-07-02T11:27:21;23.50;45.60
72206;DHT22;60111;48.286;7.812;2023-07-02T11:30:00;23.70;46.40
72206;DHT22;60111;48.286;7.812;2023-07-02T11:32:35;23.90;46.00
72206;DHT22;60111;48.286;7.812;2023-07-02T11:35:08;24.10;45.00
72206;DHT22;60111;48.286;7.812;2023-07-02T11:37:42;24.20;43.00
72206;DHT22;60111;48.286;7.812;2023-07-02T11:40:17;24.10;42.60
72206;DHT22;60111;48.286;7.812;2023-07-02T11:42:49;24.00;49.70
72206;DHT22;60111;48.286;7.812;2023-07-02T11:45:21;23.50;50.80
72206;DHT22;60111;48.286;7.812;2023-07-02T11:47:54;23.30;52.00
72206;DHT22;60111;48.286;7.812;2023-07-02T11:50:27;23.10;52.60
72206;DHT22;60111;48.286;7.812;2023-07-02T11:53:01;23.10;52.40
72206;DHT22;60111;48.286;7.812;2023-07-02T11:55:34;23.10;52.20
72206;DHT22;60111;48.286;7.812;2023-07-02T11:58:06;22.90;52.80
72206;DHT22;60111;48.286;7.812;2023-07-02T12:00:39;23.20;52.80
72206;DHT22;60111;48.286;7.812;2023-07-02T12:03:12;23.40;53.60
72206;DHT22;60111;48.286;7.812;2023-07-02T12:05:44;23.40;53.80
72206;DHT22;60111;48.286;7.812;2023-07-02T12:08:18;23.50;54.00
72206;DHT22;60111;48.286;7.812;2023-07-02T12:10:50;23.70;54.50
72206;DHT22;60111;48.286;7.812;2023-07-02T12:13:23;23.70;47.80
72206;DHT22;60111;48.286;7.812;2023-07-02T12:15:56;23.80;49.70
72206;DHT22;60111;48.286;7.812;2023-07-02T12:18:28;24.00;48.50
72206;DHT22;60111;48.286;7.812;2023-07-02T12:21:01;24.20;44.00
72206;DHT22;60111;48.286;7.812;2023-07-02T12:23:33;24.20;43.60
72206;DHT22;60111;48.286;7.812;2023-07-02T12:26:06;24.20;44.50
72206;DHT22;60111;48.286;7.812;2023-07-02T12:28:38;24.30;43.60
72206;DHT22;60111;48.286;7.812;2023-07-02T12:31:11;24.40;44.50
72206;DHT22;60111;48.286;7.812;2023-07-02T12:33:44;24.60;43.50
72206;DHT22;60111;48.286;7.812;2023-07-02T12:36:17;24.80;42.00
72206;DHT22;60111;48.286;7.812;2023-07-02T12:38:49;24.80;42.80
72206;DHT22;60111;48.286;7.812;2023-07-02T12:41:22;24.90;42.80
72206;DHT22;60111;48.286;7.812;2023-07-02T12:43:54;24.90;41.90
72206;DHT22;60111;48.286;7.812;2023-07-02T12:46:27;24.90;42.90
72206;DHT22;60111;48.286;7.812;2023-07-02T12:49:00;24.90;42.20
72206;DHT22;60111;48.286;7.812;2023-07-02T12:51:33;24.80;40.90
72206;DHT22;60111;48.286;7.812;2023-07-02T12:54:05;24.90;41.60
72206;DHT22;60111;48.286;7.812;2023-07-02T12:56:38;24.90;41.70
72206;DHT22;60111;48.286;7.812;2023-07-02T12:59:11;24.90;41.50
72206;DHT22;60111;48.286;7.812;2023-07-02T13:01:44;25.00;42.40
72206;DHT22;60111;48.286;7.812;2023-07-02T13:04:17;25.10;42.20
72206;DHT22;60111;48.286;7.812;2023-07-02T13:06:49;25.10;40.20
72206;DHT22;60111;48.286;7.812;2023-07-02T13:09:22;25.00;41.60
72206;DHT22;60111;48.286;7.812;2023-07-02T13:11:54;25.00;39.90
72206;DHT22;60111;48.286;7.812;2023-07-02T13:14:27;25.00;42.20
72206;DHT22;60111;48.286;7.812;2023-07-02T13:16:59;25.00;41.90
72206;DHT22;60111;48.286;7.812;2023-07-02T13:19:34;25.20;41.90
72206;DHT22;60111;48.286;7.812;2023-07-02T13:22:07;25.20;42.50
72206;DHT22;60111;48.286;7.812;2023-07-02T13:24:39;25.30;39.50
72206;DHT22;60111;48.286;7.812;2023-07-02T13:27:15;25.30;40.60
72206;DHT22;60111;48.286;7.812;2023-07-02T13:29:47;25.40;40.40
72206;DHT22;60111;48.286;7.812;2023-07-02T13:32:20;25.40;42.30
72206;DHT22;60111;48.286;7.812;2023-07-02T13:34:53;25.60;40.30
72206;DHT22;60111;48.286;7.812;2023-07-02T13:37:25;25.60;40.60
72206;DHT22;60111;48.286;7.812;2023-07-02T13:39:58;25.50;40.90
72206;DHT22;60111;48.286;7.812;2023-07-02T13:42:30;25.60;41.30
72206;DHT22;60111;48.286;7.812;2023-07-02T13:45:03;25.60;41.80
72206;DHT22;60111;48.286;7.812;2023-07-02T13:47:37;25.60;42.40
72206;DHT22;60111;48.286;7.812;2023-07-02T13:53:03;25.40;41.00
72206;DHT22;60111;48.286;7.812;2023-07-02T13:55:36;25.60;41.00
72206;DHT22;60111;48.286;7.812;2023-07-02T13:58:08;25.90;40.20
72206;DHT22;60111;48.286;7.812;2023-07-02T14:00:41;25.90;39.60
72206;DHT22;60111;48.286;7.812;2023-07-02T14:03:13;25.80;39.90
72206;DHT22;60111;48.286;7.812;2023-07-02T14:05:46;25.80;40.10
72206;DHT22;60111;48.286;7.812;2023-07-02T14:08:20;25.70;39.20
72206;DHT22;60111;48.286;7.812;2023-07-02T14:10:53;25.80;40.80
72206;DHT22;60111;48.286;7.812;2023-07-02T14:13:25;26.10;38.50
72206;DHT22;60111;48.286;7.812;2023-07-02T14:15:59;26.00;40.20
72206;DHT22;60111;48.286;7.812;2023-07-02T14:18:33;26.30;40.40
72206;DHT22;60111;48.286;7.812;2023-07-02T14:21:06;26.20;39.20
72206;DHT22;60111;48.286;7.812;2023-07-02T14:23:38;26.10;39.30
72206;DHT22;60111;48.286;7.812;2023-07-02T14:26:11;26.00;39.30
72206;DHT22;60111;48.286;7.812;2023-07-02T14:28:44;26.00;40.50
72206;DHT22;60111;48.286;7.812;2023-07-02T14:31:16;26.00;39.40
72206;DHT22;60111;48.286;7.812;2023-07-02T14:33:49;25.80;39.10
72206;DHT22;60111;48.286;7.812;2023-07-02T14:36:22;25.60;39.00
72206;DHT22;60111;48.286;7.812;2023-07-02T14:38:54;25.60;39.30
72206;DHT22;60111;48.286;7.812;2023-07-02T14:41:27;25.50;40.10
72206;DHT22;60111;48.286;7.812;2023-07-02T14:44:01;25.40;40.00
72206;DHT22;60111;48.286;7.812;2023-07-02T14:46:34;25.40;40.80
72206;DHT22;60111;48.286;7.812;2023-07-02T14:49:06;25.50;40.40
72206;DHT22;60111;48.286;7.812;2023-07-02T14:51:39;25.70;40.00
72206;DHT22;60111;48.286;7.812;2023-07-02T14:54:12;26.10;41.20
72206;DHT22;60111;48.286;7.812;2023-07-02T14:56:45;26.50;38.60
72206;DHT22;60111;48.286;7.812;2023-07-02T14:59:18;26.60;38.30
72206;DHT22;60111;48.286;7.812;2023-07-02T15:01:50;26.50;38.30
72206;DHT22;60111;48.286;7.812;2023-07-02T15:04:23;26.20;38.90
72206;DHT22;60111;48.286;7.812;2023-07-02T15:06:56;26.00;39.60
72206;DHT22;60111;48.286;7.812;2023-07-02T15:09:28;25.90;38.80
72206;DHT22;60111;48.286;7.812;2023-07-02T15:12:01;25.90;39.90
72206;DHT22;60111;48.286;7.812;2023-07-02T15:14:34;25.90;39.20
72206;DHT22;60111;48.286;7.812;2023-07-02T15:17:06;25.90;38.30
72206;DHT22;60111;48.286;7.812;2023-07-02T15:19:39;25.80;39.60
72206;DHT22;60111;48.286;7.812;2023-07-02T15:22:12;25.80;38.50
72206;DHT22;60111;48.286;7.812;2023-07-02T15:24:45;25.70;38.40
72206;DHT22;60111;48.286;7.812;2023-07-02T15:27:17;25.80;40.40
72206;DHT22;60111;48.286;7.812;2023-07-02T15:29:50;26.20;40.20
72206;DHT22;60111;48.286;7.812;2023-07-02T15:32:23;26.60;38.40
72206;DHT22;60111;48.286;7.812;2023-07-02T15:34:56;26.60;38.30
72206;DHT22;60111;48.286;7.812;2023-07-02T15:37:28;26.50;37.30
72206;DHT22;60111;48.286;7.812;2023-07-02T15:40:01;26.40;37.40
72206;DHT22;60111;48.286;7.812;2023-07-02T15:42:34;26.30;38.00
72206;DHT22;60111;48.286;7.812;2023-07-02T15:45:07;26.10;37.60
72206;DHT22;60111;48.286;7.812;2023-07-02T15:47:41;26.00;37.70
72206;DHT22;60111;48.286;7.812;2023-07-02T15:50:13;26.20;37.60
72206;DHT22;60111;48.286;7.812;2023-07-02T15:52:46;26.10;38.50
72206;DHT22;60111;48.286;7.812;2023-07-02T15:55:19;26.00;37.40
72206;DHT22;60111;48.286;7.812;2023-07-02T15:57:52;26.00;38.90
72206;DHT22;60111;48.286;7.812;2023-07-02T16:00:24;26.10;37.60
72206;DHT22;60111;48.286;7.812;2023-07-02T16:02:57;26.30;38.10
72206;DHT22;60111;48.286;7.812;2023-07-02T16:05:36;26.50;36.80
72206;DHT22;60111;48.286;7.812;2023-07-02T16:08:07;26.70;39.20
72206;DHT22;60111;48.286;7.812;2023-07-02T16:10:44;26.80;37.10